Time;durP1;ratioP1;P1;durP2;ratioP2;P2;SDS_P1;SDS_P2;PMS_P1;PMS_P2;Temp;Humidity;BMP_temperature;BMP_pressure;BME280_temperature;BME280_humidity;BME280_pressure;Samples;Min_cycle;Max_cycle;Signal;HPM_P1;HPM_P2
2021/04/07 00:00:15;;;;;;;7.47;3.97;;;;;;;-0.59;59.12;97966.14;114180;1193;64471;-79
2021/04/07 00:03:02;;;;;;;8.30;4.80;;;;;;;-0.61;59.18;97973.23;114293;1193;64384;-79
2021/04/07 00:05:37;;;;;;;7.50;4.10;;;;;;;-0.66;59.42;97961.25;114291;1193;64416;-82
2021/04/07 00:08:05;;;;;;;7.77;3.80;;;;;;;-0.66;59.54;97956.00;114245;1193;64455;-78
2021/04/07 00:10:35;;;;;;;7.63;3.33;;;;;;;-0.64;59.56;97957.63;114295;1193;64391;-79
2021/04/07 00:13:03;;;;;;;5.95;3.50;;;;;;;-0.69;59.02;97958.77;114252;1193;64369;-80
2021/04/07 00:15:30;;;;;;;11.00;3.70;;;;;;;-0.69;59.35;97956.16;114213;1193;64467;-79
2021/04/07 00:17:57;;;;;;;7.30;3.60;;;;;;;-0.67;59.78;97959.55;114465;1193;64295;-80
2021/04/07 00:20:27;;;;;;;6.47;3.60;;;;;;;-0.69;58.81;97967.48;114296;1193;64480;-80
2021/04/07 00:22:53;;;;;;;8.20;3.60;;;;;;;-0.72;58.74;97957.13;114215;1193;64359;-77
2021/04/07 00:25:22;;;;;;;7.90;3.93;;;;;;;-0.78;59.16;97967.88;114232;1193;64366;-77
2021/04/07 00:27:56;;;;;;;5.97;3.70;;;;;;;-0.83;59.04;97968.10;114221;1193;64455;-78
2021/04/07 00:30:29;;;;;;;9.93;4.17;;;;;;;-0.83;59.13;97970.72;114620;1193;64304;-79
2021/04/07 00:32:56;;;;;;;10.47;3.47;;;;;;;-0.83;59.60;97969.84;114216;1193;64474;-77
2021/04/07 00:35:23;;;;;;;6.67;4.20;;;;;;;-0.80;59.45;97967.10;114261;1193;64432;-82
2021/04/07 00:37:51;;;;;;;7.75;4.35;;;;;;;-0.80;59.45;97968.88;114323;1193;64423;-79
2021/04/07 00:40:19;;;;;;;10.83;4.77;;;;;;;-0.82;59.43;97963.70;114320;1193;64464;-82
2021/04/07 00:42:49;;;;;;;6.93;4.10;;;;;;;-0.82;59.84;97968.95;114251;1193;64362;-78
2021/04/07 00:45:16;;;;;;;5.40;3.53;;;;;;;-0.85;59.52;97962.05;114244;1193;64366;-79
2021/04/07 00:47:43;;;;;;;9.10;4.00;;;;;;;-0.86;59.96;97965.59;114422;1193;64349;-77
2021/04/07 00:50:12;;;;;;;10.63;4.60;;;;;;;-0.84;61.63;97971.61;114307;1193;64394;-81
2021/04/07 00:52:38;;;;;;;10.57;3.97;;;;;;;-0.75;60.31;97970.38;114311;1193;64295;-78
2021/04/07 00:55:07;;;;;;;5.97;3.77;;;;;;;-0.67;59.79;97970.88;114295;1193;64439;-79
2021/04/07 00:57:34;;;;;;;7.80;3.50;;;;;;;-0.61;60.47;97975.86;114489;1193;64365;-78
2021/04/07 01:00:01;;;;;;;8.10;3.87;;;;;;;-0.52;60.24;97968.49;114253;1192;64324;-77
2021/04/07 01:02:28;;;;;;;6.10;3.83;;;;;;;-0.46;60.12;97966.44;114274;1193;64771;-80
2021/04/07 01:04:55;;;;;;;6.73;3.93;;;;;;;-0.41;59.76;97967.09;114219;1193;64321;-77
2021/04/07 01:07:22;;;;;;;6.95;4.05;;;;;;;-0.35;59.72;97973.84;114294;1193;64484;-77
2021/04/07 01:09:48;;;;;;;13.80;4.57;;;;;;;-0.32;60.12;97982.44;114605;1193;64777;-81
2021/04/07 01:12:15;;;;;;;6.60;3.50;;;;;;;-0.27;59.80;97985.67;114229;1193;64388;-78
2021/04/07 01:14:42;;;;;;;7.90;3.85;;;;;;;-0.21;60.74;97978.45;114303;1193;64397;-78
2021/04/07 01:17:09;;;;;;;6.45;3.80;;;;;;;-0.17;59.69;97985.27;114259;1193;64458;-81
2021/04/07 01:19:36;;;;;;;7.17;3.93;;;;;;;-0.14;59.85;97988.59;114297;1193;64295;-81
2021/04/07 01:22:05;;;;;;;8.73;4.30;;;;;;;-0.11;59.75;97993.71;114702;1193;64356;-76
2021/04/07 01:24:32;;;;;;;7.95;4.00;;;;;;;-0.07;60.23;97986.53;114236;1193;64365;-78
2021/04/07 01:27:00;;;;;;;5.90;3.67;;;;;;;-0.04;59.96;97992.50;114201;1193;64538;-79
2021/04/07 01:29:27;;;;;;;10.57;4.70;;;;;;;0.01;59.96;97984.42;114257;1193;64423;-80
2021/04/07 01:31:56;;;;;;;7.20;4.80;;;;;;;0.03;59.70;97982.56;114203;1193;64320;-80
2021/04/07 01:34:24;;;;;;;6.90;3.70;;;;;;;0.08;59.79;97992.86;114458;1193;64308;-78
2021/04/07 01:36:52;;;;;;;7.20;3.60;;;;;;;0.09;60.74;97984.91;114235;1193;64458;-78
2021/04/07 01:39:21;;;;;;;8.57;3.93;;;;;;;0.11;59.54;97988.30;114314;1193;64442;-79
2021/04/07 01:41:49;;;;;;;7.00;3.40;;;;;;;0.13;60.46;97990.88;114667;1193;64333;-81
2021/04/07 01:44:18;;;;;;;7.47;3.80;;;;;;;0.13;60.28;97989.10;114234;1193;64429;-79
2021/04/07 01:46:46;;;;;;;4.90;3.60;;;;;;;0.14;59.99;97982.08;114223;1193;64471;-79
2021/04/07 01:49:14;;;;;;;6.33;3.53;;;;;;;0.15;59.60;98000.38;114420;1193;64352;-78
2021/04/07 01:51:42;;;;;;;8.95;3.65;;;;;;;0.16;59.70;97999.44;114235;1193;64320;-81
2021/04/07 01:54:13;;;;;;;4.47;3.10;;;;;;;0.17;60.22;97995.89;114194;1193;64528;-79
2021/04/07 01:56:49;;;;;;;4.50;3.20;;;;;;;0.18;60.37;97992.34;114419;1193;64477;-79
2021/04/07 01:59:21;;;;;;;5.75;3.65;;;;;;;0.19;59.81;97993.19;114250;1193;64359;-81
2021/04/07 02:01:49;;;;;;;9.30;3.70;;;;;;;0.19;60.29;97998.44;114421;1193;64512;-79
2021/04/07 02:04:16;;;;;;;5.10;3.60;;;;;;;0.19;59.78;97996.69;114267;1193;64295;-82
2021/04/07 02:06:43;;;;;;;3.40;2.87;;;;;;;0.21;60.73;97999.23;114262;1193;64384;-78
2021/04/07 02:09:11;;;;;;;8.40;3.60;;;;;;;0.21;60.16;98007.96;114480;1193;64382;-78
2021/04/07 02:11:46;;;;;;;4.67;3.33;;;;;;;0.21;59.97;98005.34;114351;1193;64448;-79
2021/04/07 02:14:13;;;;;;;;;;;;;;;0.23;59.76;98006.10;114283;1200;64467;-79
2021/04/07 02:16:40;;;;;;;5.90;3.30;;;;;;;0.22;60.10;98007.03;114342;1192;64366;-77
2021/04/07 02:19:10;;;;;;;9.67;3.80;;;;;;;0.22;59.81;98009.66;114235;1193;64455;-79
2021/04/07 02:21:37;;;;;;;6.65;3.55;;;;;;;0.24;60.17;98013.05;114233;1193;64369;-79
2021/04/07 02:24:05;;;;;;;8.40;3.20;;;;;;;0.23;60.15;98010.50;114427;1193;64426;-80
2021/04/07 02:26:32;;;;;;;7.67;3.47;;;;;;;0.24;60.57;98006.95;114304;1193;64323;-79
2021/04/07 02:28:59;;;;;;;5.05;2.70;;;;;;;0.25;60.05;98006.91;114297;1193;64458;-80
2021/04/07 02:31:26;;;;;;;3.43;2.70;;;;;;;0.24;59.58;98007.80;114208;1193;64589;-79
2021/04/07 02:33:52;;;;;;;7.97;3.37;;;;;;;0.24;59.61;98009.58;114284;1193;64460;-78
2021/04/07 02:36:19;;;;;;;5.43;2.77;;;;;;;0.24;60.33;98013.05;114276;1193;64343;-78
2021/04/07 02:38:46;;;;;;;6.30;3.13;;;;;;;0.23;60.51;98010.50;114461;1193;64410;-77
2021/04/07 02:41:12;;;;;;;6.20;3.00;;;;;;;0.23;60.18;98016.61;114224;1193;64342;-78
2021/04/07 02:43:39;;;;;;;5.00;2.97;;;;;;;0.26;60.45;98013.00;114253;1193;64448;-79
2021/04/07 02:46:06;;;;;;;5.65;3.10;;;;;;;0.24;59.90;98007.80;114876;1193;64345;-81
2021/04/07 02:48:32;;;;;;;5.80;3.30;;;;;;;0.26;59.70;98016.48;114287;1193;64413;-78
2021/04/07 02:50:59;;;;;;;8.65;4.05;;;;;;;0.25;59.84;98025.28;114272;1192;64359;-80
2021/04/07 02:53:26;;;;;;;8.60;3.30;;;;;;;0.26;59.93;98018.26;114205;1193;64337;-81
2021/04/07 02:55:52;;;;;;;10.25;3.60;;;;;;;0.25;60.39;98021.78;114196;1193;64365;-78
2021/04/07 02:58:19;;;;;;;8.40;3.73;;;;;;;0.26;60.57;98015.63;114492;1192;64474;-78
2021/04/07 03:00:46;;;;;;;6.10;3.70;;;;;;;0.25;60.29;98020.03;114154;1192;64362;-81
2021/04/07 03:03:12;;;;;;;4.00;3.07;;;;;;;0.25;60.21;98019.16;114227;1193;64367;-79
2021/04/07 03:05:39;;;;;;;4.40;2.67;;;;;;;0.24;59.77;98018.30;114244;1193;64368;-79
2021/04/07 03:08:06;;;;;;;10.97;3.50;;;;;;;0.25;60.13;98020.03;114325;1193;64484;-82
2021/04/07 03:10:32;;;;;;;6.50;3.73;;;;;;;0.25;59.88;98032.28;114208;1193;64471;-82
2021/04/07 03:13:00;;;;;;;4.97;3.00;;;;;;;0.26;60.53;98029.61;114589;1193;64359;-77
2021/04/07 03:15:30;;;;;;;5.33;3.10;;;;;;;0.27;59.82;98030.45;114300;1193;64378;-81
2021/04/07 03:17:59;;;;;;;6.20;3.40;;;;;;;0.29;60.89;98033.00;114215;1193;64429;-80
2021/04/07 03:20:28;;;;;;;8.20;3.10;;;;;;;0.29;59.91;98035.63;114119;1193;64436;-81
2021/04/07 03:22:54;;;;;;;8.75;3.65;;;;;;;0.30;60.28;98038.17;114322;1193;64378;-77
2021/04/07 03:25:21;;;;;;;8.55;3.40;;;;;;;0.31;59.92;98039.02;114276;1193;64375;-79
2021/04/07 03:27:49;;;;;;;9.85;3.45;;;;;;;0.28;60.64;98041.81;114366;1193;64298;-80
2021/04/07 03:30:18;;;;;;;8.53;3.80;;;;;;;0.25;60.80;98041.04;114456;1192;64371;-82
2021/04/07 03:32:45;;;;;;;5.80;3.65;;;;;;;0.23;60.16;98042.86;114215;1193;64385;-78
2021/04/07 03:35:12;;;;;;;7.13;3.77;;;;;;;0.21;60.82;98044.72;114275;1193;64388;-81
2021/04/07 03:37:38;;;;;;;10.35;3.45;;;;;;;0.22;60.78;98043.80;114358;1193;64365;-80
2021/04/07 03:40:06;;;;;;;8.30;4.17;;;;;;;0.18;60.37;98044.84;114211;1192;64433;-80
2021/04/07 03:42:32;;;;;;;8.77;3.47;;;;;;;0.15;60.47;98045.00;114441;1192;64365;-77
2021/04/07 03:44:59;;;;;;;9.47;4.20;;;;;;;0.12;61.24;98042.50;114230;1193;64496;-78
2021/04/07 03:47:26;;;;;;;8.85;3.70;;;;;;;0.12;60.34;98047.75;114278;1193;64349;-80
2021/04/07 03:49:52;;;;;;;5.40;3.35;;;;;;;0.13;61.15;98057.36;114233;1193;64406;-77
2021/04/07 03:52:19;;;;;;;5.30;3.00;;;;;;;0.12;61.21;98053.00;114633;1193;64353;-79
2021/04/07 03:54:46;;;;;;;6.63;3.20;;;;;;;0.12;61.58;98058.25;114292;1193;64356;-80
2021/04/07 03:57:13;;;;;;;6.70;3.40;;;;;;;0.12;61.18;98065.28;114263;1192;64391;-82
2021/04/07 03:59:39;;;;;;;4.13;2.87;;;;;;;0.13;60.96;98064.39;114599;1193;64339;-81
2021/04/07 04:02:06;;;;;;;4.25;3.40;;;;;;;0.11;60.27;98059.19;114242;1193;64414;-81
2021/04/07 04:04:33;;;;;;;4.13;2.77;;;;;;;0.09;60.33;98063.66;114340;1193;64359;-77
2021/04/07 04:06:59;;;;;;;5.20;3.20;;;;;;;0.07;60.34;98060.27;114253;1193;64809;-77
2021/04/07 04:09:26;;;;;;;6.80;3.60;;;;;;;0.06;60.99;98062.94;114587;1193;64327;-77
2021/04/07 04:11:52;;;;;;;6.13;3.10;;;;;;;0.04;60.88;98070.89;114271;1193;64426;-77
2021/04/07 04:14:19;;;;;;;4.17;2.90;;;;;;;0.04;61.43;98073.52;114248;1193;64477;-80
2021/04/07 04:16:46;;;;;;;5.97;2.77;;;;;;;0.03;60.89;98061.31;114236;1193;64448;-81
2021/04/07 04:19:13;;;;;;;6.85;3.20;;;;;;;0.05;60.63;98074.36;114253;1193;64363;-77
2021/04/07 04:21:40;;;;;;;7.03;2.93;;;;;;;0.05;61.04;98074.36;114305;1193;64519;-79
2021/04/07 04:24:07;;;;;;;3.20;2.30;;;;;;;0.04;60.60;98083.16;114244;1193;64394;-82
2021/04/07 04:26:34;;;;;;;5.30;2.90;;;;;;;0.04;60.67;98085.78;114361;1193;64749;-78
2021/04/07 04:29:01;;;;;;;5.73;3.00;;;;;;;0.05;60.90;98088.34;114555;1193;64518;-79
2021/04/07 04:31:28;;;;;;;7.05;3.70;;;;;;;0.08;60.68;98090.84;114287;1193;64397;-78
2021/04/07 04:33:54;;;;;;;6.67;2.80;;;;;;;0.11;61.19;98093.31;114322;1193;64308;-79
2021/04/07 04:36:21;;;;;;;5.65;2.75;;;;;;;0.14;60.93;98098.44;114724;1192;64465;-80
2021/04/07 04:38:48;;;;;;;4.00;3.00;;;;;;;0.16;61.25;98101.84;114425;1193;64442;-81
2021/04/07 04:41:14;;;;;;;8.17;3.57;;;;;;;0.19;60.95;98109.59;114509;1193;64394;-77
2021/04/07 04:43:41;;;;;;;4.05;2.75;;;;;;;0.21;61.05;98110.36;114384;1193;64500;-79
2021/04/07 04:46:08;;;;;;;7.13;3.33;;;;;;;0.20;61.12;98111.29;114280;1193;64557;-81
2021/04/07 04:48:34;;;;;;;4.77;3.03;;;;;;;0.22;60.58;98111.21;114321;1193;64307;-80
2021/04/07 04:51:01;;;;;;;8.30;3.30;;;;;;;0.22;61.34;98116.47;114440;1193;64445;-82
2021/04/07 04:53:28;;;;;;;9.20;3.20;;;;;;;0.20;61.06;98120.94;114346;1193;64358;-80
2021/04/07 04:55:55;;;;;;;10.37;4.20;;;;;;;0.24;60.91;98120.70;114265;1193;64805;-80
2021/04/07 04:58:21;;;;;;;8.05;3.50;;;;;;;0.23;60.92;98126.04;114245;1193;64359;-79
2021/04/07 05:00:48;;;;;;;5.83;2.93;;;;;;;0.22;61.76;98130.44;114301;1193;64378;-78
2021/04/07 05:03:15;;;;;;;10.63;3.27;;;;;;;0.19;61.20;98124.46;114330;1193;64416;-80
2021/04/07 05:05:41;;;;;;;6.13;3.17;;;;;;;0.18;61.37;98128.86;114203;1193;64377;-82
2021/04/07 05:08:08;;;;;;;6.63;3.47;;;;;;;0.19;61.30;98124.46;114289;1193;64410;-82
2021/04/07 05:10:35;;;;;;;7.90;4.30;;;;;;;0.16;62.46;98130.72;114267;1193;64340;-79
2021/04/07 05:13:01;;;;;;;12.00;4.37;;;;;;;0.11;61.37;98132.69;114308;1193;64381;-81
2021/04/07 05:15:28;;;;;;;7.03;3.73;;;;;;;0.09;62.02;98139.79;114331;1193;64343;-79
2021/04/07 05:17:55;;;;;;;6.87;3.50;;;;;;;0.05;62.11;98145.23;114302;1193;64250;-81
2021/04/07 05:20:22;;;;;;;10.75;5.10;;;;;;;0.05;61.85;98150.48;114272;1193;64323;-79
2021/04/07 05:22:48;;;;;;;12.80;6.20;;;;;;;0.05;62.03;98153.96;114267;1193;64449;-81
2021/04/07 05:25:15;;;;;;;10.13;5.30;;;;;;;0.04;61.89;98157.51;114232;1193;64340;-80
2021/04/07 05:27:42;;;;;;;10.30;5.75;;;;;;;0.05;61.84;98161.84;114271;1193;64372;-83
2021/04/07 05:30:09;;;;;;;10.40;5.60;;;;;;;0.10;61.99;98157.23;114310;1193;64567;-83
2021/04/07 05:32:36;;;;;;;8.30;4.30;;;;;;;0.14;62.53;98158.82;114641;1192;64372;-79
2021/04/07 05:35:05;;;;;;;8.50;5.10;;;;;;;0.13;62.69;98162.38;114271;1192;64545;-79
2021/04/07 05:37:32;;;;;;;11.60;4.60;;;;;;;0.16;62.29;98164.00;114740;1193;64367;-79
2021/04/07 05:39:59;;;;;;;10.40;4.90;;;;;;;0.23;62.25;98168.91;114359;1193;64337;-80
2021/04/07 05:42:25;;;;;;;11.17;5.87;;;;;;;0.32;62.57;98170.28;114687;1193;64382;-79
2021/04/07 05:44:52;;;;;;;10.77;5.40;;;;;;;0.40;62.69;98177.81;114457;1193;64367;-79
2021/04/07 05:47:19;;;;;;;8.97;5.20;;;;;;;0.42;62.95;98178.59;114279;1193;64500;-82
2021/04/07 05:49:45;;;;;;;13.77;5.60;;;;;;;0.47;62.92;98176.61;114386;1193;64324;-80
2021/04/07 05:52:12;;;;;;;10.10;5.40;;;;;;;0.49;62.27;98180.01;114263;1193;64388;-81
2021/04/07 05:54:39;;;;;;;12.73;5.67;;;;;;;0.50;62.79;98189.59;114345;1193;64448;-79
2021/04/07 05:57:06;;;;;;;11.37;5.37;;;;;;;0.56;62.45;98188.46;114244;1193;64384;-81
2021/04/07 05:59:34;;;;;;;8.90;5.67;;;;;;;0.74;62.05;98184.99;114267;1193;64366;-79
2021/04/07 06:02:02;;;;;;;12.77;6.77;;;;;;;0.98;62.25;98188.26;114403;1193;64397;-80
2021/04/07 06:04:29;;;;;;;11.33;5.53;;;;;;;1.35;62.30;98193.47;114445;1193;64449;-81
2021/04/07 06:06:56;;;;;;;13.13;5.80;;;;;;;1.89;61.97;98193.42;114497;1193;64445;-81
2021/04/07 06:09:24;;;;;;;11.80;5.90;;;;;;;2.13;61.78;98193.95;114411;1193;64321;-80
2021/04/07 06:11:51;;;;;;;9.07;5.03;;;;;;;2.06;61.61;98195.20;114199;1193;64650;-79
2021/04/07 06:14:27;;;;;;;10.17;5.97;;;;;;;2.03;61.16;98195.34;114478;1193;64378;-81
2021/04/07 06:16:54;;;;;;;7.80;5.27;;;;;;;2.17;61.83;98203.41;114479;1193;64555;-80
2021/04/07 06:19:22;;;;;;;8.17;5.27;;;;;;;2.24;61.34;98193.41;114444;1193;64353;-81
2021/04/07 06:21:49;;;;;;;9.00;5.50;;;;;;;2.41;61.42;98196.83;114384;1193;64471;-80
2021/04/07 06:24:18;;;;;;;13.47;6.70;;;;;;;2.38;61.54;98207.55;114506;1193;64349;-83
2021/04/07 06:26:45;;;;;;;11.20;6.03;;;;;;;2.25;61.12;98203.01;114354;1192;64432;-80
2021/04/07 06:29:12;;;;;;;13.70;7.07;;;;;;;2.13;61.28;98201.85;114404;1193;64372;-81
2021/04/07 06:31:40;;;;;;;20.20;6.40;;;;;;;2.00;61.33;98198.15;114421;1193;64373;-82
2021/04/07 06:34:07;;;;;;;9.55;5.35;;;;;;;1.91;61.10;98196.84;114438;1193;64298;-81
2021/04/07 06:36:35;;;;;;;17.25;6.70;;;;;;;1.90;61.71;98206.50;114480;1193;64320;-80
2021/04/07 06:39:02;;;;;;;15.10;5.90;;;;;;;1.92;61.42;98209.08;114283;1193;64365;-78
2021/04/07 06:41:30;;;;;;;11.63;5.57;;;;;;;1.95;61.53;98208.91;114360;1193;64333;-79
2021/04/07 06:43:59;;;;;;;10.07;5.87;;;;;;;2.12;61.46;98211.54;114361;1193;64376;-78
2021/04/07 06:46:27;;;;;;;16.77;9.30;;;;;;;2.26;61.48;98212.61;114463;1193;64359;-78
2021/04/07 06:48:56;;;;;;;8.10;5.57;;;;;;;2.25;60.93;98221.45;114409;1192;64446;-77
2021/04/07 06:51:25;;;;;;;13.20;5.57;;;;;;;2.28;61.01;98221.27;114481;1193;64531;-78
2021/04/07 06:53:52;;;;;;;12.50;5.33;;;;;;;2.48;60.96;98225.50;114445;1193;64365;-78
2021/04/07 06:56:20;;;;;;;11.95;5.85;;;;;;;2.56;61.23;98223.33;114389;1193;64318;-79
2021/04/07 06:58:47;;;;;;;13.07;5.53;;;;;;;2.63;61.00;98224.70;114407;1193;64452;-78
2021/04/07 07:01:17;;;;;;;19.47;7.33;;;;;;;2.71;60.72;98235.69;114381;1193;64382;-78
2021/04/07 07:03:47;;;;;;;12.03;5.97;;;;;;;2.78;60.52;98231.78;114425;1193;64382;-78
2021/04/07 07:06:15;;;;;;;11.23;6.50;;;;;;;2.85;60.39;98234.94;114454;1193;64500;-78
2021/04/07 07:08:45;;;;;;;19.43;7.63;;;;;;;2.89;60.18;98229.43;114408;1193;64339;-78
2021/04/07 07:11:16;;;;;;;75.40;34.80;;;;;;;2.95;60.01;98236.16;114412;1193;64388;-77
2021/04/07 07:13:45;;;;;;;141.00;57.40;;;;;;;2.96;59.81;98229.95;114424;1193;64429;-77
2021/04/07 07:16:24;;;;;;;690.13;201.10;;;;;;;2.96;60.17;98233.44;114487;1193;64398;-78
2021/04/07 07:18:55;;;;;;;521.27;223.70;;;;;;;3.07;60.21;98246.05;114405;1193;64452;-78
2021/04/07 07:21:25;;;;;;;246.23;91.23;;;;;;;3.10;59.78;98245.86;114473;1193;64365;-78
2021/04/07 07:23:56;;;;;;;28.60;11.83;;;;;;;3.15;59.82;98246.47;114641;1193;64375;-81
2021/04/07 07:26:25;;;;;;;77.90;29.10;;;;;;;3.32;59.99;98248.19;114375;1193;64420;-78
2021/04/07 07:28:59;;;;;;;47.17;18.23;;;;;;;3.48;59.67;98250.80;114348;1193;64324;-75
2021/04/07 07:31:29;;;;;;;350.30;149.00;;;;;;;3.46;59.65;98252.69;114460;1193;64459;-78
2021/04/07 07:33:59;;;;;;;279.73;107.90;;;;;;;3.42;59.47;98253.78;114540;1193;64301;-77
2021/04/07 07:36:29;;;;;;;318.90;111.15;;;;;;;3.53;59.53;98268.09;114436;1193;64453;-77
2021/04/07 07:38:58;;;;;;;18.80;8.87;;;;;;;3.59;58.73;98258.13;114358;1193;64484;-78
2021/04/07 07:41:45;;;;;;;21.05;10.75;;;;;;;3.51;58.88;98263.84;114431;1193;64457;-78
2021/04/07 07:44:13;;;;;;;186.77;84.40;;;;;;;3.58;59.59;98262.56;114334;1193;64382;-77
2021/04/07 07:46:58;;;;;;;28.97;10.43;;;;;;;3.80;59.07;98275.39;114442;1193;64327;-80
2021/04/07 07:49:35;;;;;;;23.60;9.50;;;;;;;4.00;59.44;98267.16;114451;1192;64708;-77
2021/04/07 07:52:11;;;;;;;742.07;357.37;;;;;;;4.26;59.52;98270.06;114493;1193;64353;-77
2021/04/07 07:54:39;;;;;;;74.60;30.50;;;;;;;4.38;59.11;98266.70;114485;1192;64333;-78
2021/04/07 07:57:20;;;;;;;31.45;14.50;;;;;;;4.35;58.70;98280.11;114511;1193;64445;-78
2021/04/07 07:59:47;;;;;;;151.87;59.97;;;;;;;4.32;59.24;98282.92;114460;1193;64355;-78
2021/04/07 08:02:20;;;;;;;19.50;9.87;;;;;;;4.05;59.08;98293.33;114396;1193;64787;-77
2021/04/07 08:04:49;;;;;;;290.40;128.10;;;;;;;3.72;58.44;98302.23;114403;1193;64394;-78
2021/04/07 08:07:17;;;;;;;18.90;7.95;;;;;;;3.39;58.94;98312.03;114214;1193;64397;-77
2021/04/07 08:09:47;;;;;;;15.70;6.60;;;;;;;3.20;59.34;98286.65;114491;1192;64359;-82
2021/04/07 08:12:16;;;;;;;12.20;6.20;;;;;;;3.13;60.06;98300.27;114515;1193;64362;-77
2021/04/07 08:14:48;;;;;;;11.90;6.90;;;;;;;3.30;59.69;98296.69;114421;1193;64413;-79
2021/04/07 08:17:16;;;;;;;10.17;4.67;;;;;;;3.41;58.82;98307.52;114455;1193;64374;-77
2021/04/07 08:19:47;;;;;;;14.25;6.40;;;;;;;3.53;58.50;98325.32;114413;1193;64410;-79
2021/04/07 08:22:19;;;;;;;20.53;10.67;;;;;;;3.53;58.77;98299.77;114407;1193;64432;-78
2021/04/07 08:24:53;;;;;;;14.27;6.03;;;;;;;3.96;58.99;98307.92;114493;1193;64349;-76
2021/04/07 08:27:23;;;;;;;12.17;6.20;;;;;;;4.33;59.23;98301.36;114513;1192;64244;-77
2021/04/07 08:29:56;;;;;;;9.53;5.73;;;;;;;4.37;59.04;98301.16;114376;1193;64445;-79
2021/04/07 08:32:32;;;;;;;11.65;5.20;;;;;;;4.75;59.39;98302.38;114467;1193;64302;-77
2021/04/07 08:35:00;;;;;;;10.15;4.90;;;;;;;5.11;58.20;98314.31;114539;1193;64356;-78
2021/04/07 08:37:34;;;;;;;11.90;4.57;;;;;;;5.27;58.25;98306.25;114496;1193;64378;-77
2021/04/07 08:40:16;;;;;;;9.83;4.47;;;;;;;5.40;57.33;98308.03;114537;1193;64561;-81
2021/04/07 08:42:51;;;;;;;9.13;4.47;;;;;;;5.72;57.11;98309.59;114418;1193;64413;-80
2021/04/07 08:45:21;;;;;;;8.67;4.67;;;;;;;5.81;57.24;98303.71;114427;1192;64368;-77
2021/04/07 08:47:56;;;;;;;7.63;4.03;;;;;;;5.84;57.96;98303.50;114373;1193;64406;-77
2021/04/07 08:50:29;;;;;;;;;;;;;;;6.44;57.53;98303.95;114500;1201;64481;-74
2021/04/07 08:53:12;;;;;;;8.23;4.37;;;;;;;6.67;57.52;98310.34;114448;1193;64365;-78
2021/04/07 08:55:43;;;;;;;7.93;4.10;;;;;;;6.27;55.14;98313.98;114431;1193;64509;-78
2021/04/07 08:58:11;;;;;;;9.40;4.20;;;;;;;5.70;56.83;98309.69;114252;1193;64337;-78
2021/04/07 09:00:40;;;;;;;7.60;4.80;;;;;;;5.32;57.29;98326.20;114590;1193;64404;-79
2021/04/07 09:03:17;;;;;;;5.87;3.57;;;;;;;4.99;56.26;98337.08;114443;1193;64429;-79
2021/04/07 09:05:48;;;;;;;9.40;5.20;;;;;;;4.88;57.21;98343.02;114452;1193;64378;-76
2021/04/07 09:08:26;;;;;;;7.35;4.45;;;;;;;5.27;56.92;98338.88;114368;1193;65035;-78
2021/04/07 09:11:01;;;;;;;12.90;5.00;;;;;;;5.54;56.34;98340.77;114314;1193;64433;-79
2021/04/07 09:13:35;;;;;;;8.57;4.90;;;;;;;5.66;56.90;98339.97;114391;1193;64365;-78
2021/04/07 09:16:08;;;;;;;31.00;17.27;;;;;;;5.68;56.51;98340.73;114408;1193;64366;-78
2021/04/07 09:18:39;;;;;;;10.85;5.85;;;;;;;5.62;57.23;98334.03;114371;1193;64420;-78
2021/04/07 09:21:10;;;;;;;9.77;5.33;;;;;;;5.42;55.99;98342.38;114349;1193;65743;-78
2021/04/07 09:23:39;;;;;;;24.15;10.60;;;;;;;5.19;56.04;98346.44;114436;1193;64391;-78
2021/04/07 09:26:16;;;;;;;10.57;5.67;;;;;;;5.14;56.59;98346.72;114351;1192;64452;-76
2021/04/07 09:28:49;;;;;;;45.83;20.40;;;;;;;5.26;56.25;98341.63;114488;1193;64371;-78
2021/04/07 09:31:26;;;;;;;46.65;22.20;;;;;;;5.18;56.78;98346.55;114541;1193;64353;-76
2021/04/07 09:33:56;;;;;;;29.47;14.13;;;;;;;5.12;56.29;98351.27;114325;1193;64503;-77
2021/04/07 09:36:34;;;;;;;154.60;58.47;;;;;;;5.06;56.71;98353.44;114271;1193;64365;-78
2021/04/07 09:39:04;;;;;;;51.75;23.05;;;;;;;4.99;56.49;98349.46;114148;1193;64400;-82
2021/04/07 09:41:34;;;;;;;11.30;4.40;;;;;;;4.70;55.81;98352.05;114384;1193;64362;-78
2021/04/07 09:44:07;;;;;;;15.17;5.20;;;;;;;4.34;57.37;98352.44;114201;1193;64366;-78
2021/04/07 09:46:39;;;;;;;12.27;5.83;;;;;;;4.22;57.01;98369.00;114364;1193;64353;-75
2021/04/07 09:49:11;;;;;;;7.15;4.45;;;;;;;4.24;57.02;98367.11;114363;1193;64352;-78
2021/04/07 09:51:48;;;;;;;13.77;5.37;;;;;;;4.18;57.42;98372.74;114412;1192;64400;-77
2021/04/07 09:54:23;;;;;;;15.95;8.10;;;;;;;4.39;57.92;98360.95;114332;1193;64359;-81
2021/04/07 09:57:08;;;;;;;10.17;6.13;;;;;;;4.93;57.31;98369.20;114755;1193;64438;-77
2021/04/07 09:59:43;;;;;;;13.20;5.87;;;;;;;5.55;57.63;98363.66;114390;1193;64350;-78
2021/04/07 10:02:13;;;;;;;9.70;5.50;;;;;;;5.85;56.90;98356.42;114326;1193;64403;-77
2021/04/07 10:04:45;;;;;;;8.70;4.97;;;;;;;6.04;55.68;98357.89;114400;1193;64477;-76
2021/04/07 10:07:24;;;;;;;7.47;4.17;;;;;;;6.02;55.59;98357.15;114358;1193;64365;-77
2021/04/07 10:09:56;;;;;;;16.05;7.20;;;;;;;5.89;56.11;98375.60;114439;1193;64475;-78
2021/04/07 10:12:25;;;;;;;10.70;5.87;;;;;;;5.67;56.87;98382.28;114364;1193;64429;-77
2021/04/07 10:14:56;;;;;;;15.35;5.85;;;;;;;5.32;56.75;98402.98;114372;1193;64337;-78
2021/04/07 10:17:26;;;;;;;11.80;5.37;;;;;;;5.12;57.83;98395.41;114350;1192;64436;-78
2021/04/07 10:19:55;;;;;;;13.37;5.07;;;;;;;5.19;57.43;98401.18;114460;1193;64391;-77
2021/04/07 10:22:30;;;;;;;12.53;5.87;;;;;;;5.39;58.09;98401.66;114457;1193;64394;-80
2021/04/07 10:25:04;;;;;;;13.37;6.40;;;;;;;5.86;58.55;98404.97;114393;1193;64468;-78
2021/04/07 10:27:31;;;;;;;8.07;4.87;;;;;;;5.93;57.83;98401.85;114390;1193;64396;-80
2021/04/07 10:30:06;;;;;;;11.20;5.20;;;;;;;5.45;57.13;98426.91;114285;1193;64391;-77
2021/04/07 10:32:55;;;;;;;8.73;4.60;;;;;;;4.65;57.40;98432.63;114374;1192;64426;-78
2021/04/07 10:35:27;;;;;;;5.55;2.70;;;;;;;3.75;57.28;98435.88;114339;1193;64449;-77
2021/04/07 10:38:10;;;;;;;8.30;3.10;;;;;;;3.49;57.70;98432.00;114537;1193;64621;-77
2021/04/07 10:40:41;;;;;;;6.47;2.50;;;;;;;3.46;58.21;98430.39;114602;1193;64369;-77
2021/04/07 10:43:12;;;;;;;5.83;3.07;;;;;;;3.06;58.12;98425.52;114461;1193;64292;-78
2021/04/07 10:45:41;;;;;;;9.00;2.80;;;;;;;2.71;58.45;98433.42;114520;1193;64362;-77
2021/04/07 10:48:09;;;;;;;8.27;4.00;;;;;;;2.60;58.99;98433.09;114408;1192;64522;-78
2021/04/07 10:50:41;;;;;;;12.43;4.20;;;;;;;2.81;59.46;98421.48;114409;1193;64379;-78
2021/04/07 10:53:11;;;;;;;8.60;5.13;;;;;;;3.39;59.32;98423.73;114409;1193;64787;-78
2021/04/07 10:55:39;;;;;;;8.90;5.20;;;;;;;3.90;59.54;98423.65;114353;1193;64367;-77
2021/04/07 10:58:06;;;;;;;11.85;6.25;;;;;;;4.48;59.74;98415.92;114387;1193;64362;-77
2021/04/07 11:00:40;;;;;;;10.40;5.50;;;;;;;5.08;59.26;98413.25;114375;1193;64423;-78
2021/04/07 11:03:08;;;;;;;10.73;4.90;;;;;;;5.54;56.75;98399.88;114345;1193;64535;-80
2021/04/07 11:05:40;;;;;;;8.03;4.93;;;;;;;5.87;56.68;98394.26;114453;1193;64436;-77
2021/04/07 11:08:10;;;;;;;8.10;4.27;;;;;;;6.40;56.74;98394.42;114254;1193;64299;-80
2021/04/07 11:10:52;;;;;;;15.07;7.83;;;;;;;6.65;55.57;98393.66;114310;1192;64445;-79
2021/04/07 11:13:21;;;;;;;6.25;4.30;;;;;;;7.05;55.83;98397.12;114264;1193;64353;-81
2021/04/07 11:15:48;;;;;;;10.53;4.60;;;;;;;7.40;54.22;98388.54;114269;1193;64477;-77
2021/04/07 11:18:16;;;;;;;7.87;4.50;;;;;;;7.19;54.13;98402.36;114321;1193;64365;-78
2021/04/07 11:20:44;;;;;;;5.70;4.15;;;;;;;6.83;54.02;98400.39;114368;1193;64369;-77
2021/04/07 11:23:12;;;;;;;7.23;4.60;;;;;;;6.47;53.32;98408.98;114305;1193;64323;-84
2021/04/07 11:25:43;;;;;;;7.40;4.40;;;;;;;6.27;54.99;98417.39;114461;1193;64346;-80
2021/04/07 11:28:21;;;;;;;9.07;5.23;;;;;;;6.53;55.70;98415.69;114242;1193;64352;-81
2021/04/07 11:31:07;;;;;;;6.60;4.20;;;;;;;6.60;55.41;98409.02;114299;1193;64359;-80
2021/04/07 11:38:44;;;;;;;7.70;5.10;;;;;;;6.32;55.44;98425.91;114334;1191;64423;-77
2021/04/07 11:46:27;;;;;;;15.70;6.40;;;;;;;7.48;54.37;98418.08;114403;1193;64465;-77
2021/04/07 11:48:54;;;;;;;9.83;5.27;;;;;;;7.21;54.06;98420.83;114371;1193;64439;-77